Time;durP1;ratioP1;P1;durP2;ratioP2;P2;SDS_P1;SDS_P2;PMS_P1;PMS_P2;Temp;Humidity;BMP_temperature;BMP_pressure;BME280_temperature;BME280_humidity;BME280_pressure;Samples;Min_cycle;Max_cycle;Signal;HPM_P1;HPM_P2
2022/04/04 00:00:48;;;;;;;12.07;7.70;;;-0.90;99.90;;;;;;4932270;28;20555;-62
2022/04/04 00:03:15;;;;;;;12.40;7.20;;;-0.90;99.90;;;;;;4931538;28;20141;-61
2022/04/04 00:05:42;;;;;;;13.88;7.70;;;-0.90;99.90;;;;;;4927895;28;20196;-62
2022/04/04 00:08:10;;;;;;;12.38;7.97;;;-1.00;99.90;;;;;;4930577;28;20552;-62
2022/04/04 00:10:37;;;;;;;13.93;8.80;;;-1.00;99.90;;;;;;4927221;28;20039;-61
2022/04/04 00:13:04;;;;;;;13.40;7.68;;;-1.00;99.90;;;;;;4934077;28;20483;-61
2022/04/04 00:15:31;;;;;;;12.60;8.75;;;-1.00;99.90;;;;;;4932009;28;20054;-62
2022/04/04 00:18:10;;;;;;;11.90;8.52;;;-1.10;99.90;;;;;;4932921;28;20090;-62
2022/04/04 00:20:41;;;;;;;15.43;9.00;;;-1.20;99.90;;;;;;4928616;28;20361;-62
2022/04/04 00:23:12;;;;;;;14.77;9.27;;;-1.20;99.90;;;;;;4927633;28;20066;-61
2022/04/04 00:25:40;;;;;;;12.05;8.75;;;-1.30;99.90;;;;;;4930223;28;20034;-62
2022/04/04 00:28:08;;;;;;;14.57;9.40;;;-1.30;99.90;;;;;;4928770;28;20417;-62
2022/04/04 00:30:36;;;;;;;14.93;9.10;;;-1.40;99.90;;;;;;4926177;28;20867;-62
2022/04/04 00:33:04;;;;;;;17.63;9.57;;;-1.40;99.90;;;;;;4930859;28;20575;-62
2022/04/04 00:35:32;;;;;;;12.75;7.85;;;-1.50;99.90;;;;;;4926062;28;20049;-63
2022/04/04 00:38:00;;;;;;;12.23;8.10;;;-1.60;99.90;;;;;;4927194;28;20536;-62
2022/04/04 00:40:27;;;;;;;11.73;8.75;;;-1.60;99.90;;;;;;4927833;28;20149;-61
2022/04/04 00:42:54;;;;;;;17.10;10.35;;;-1.60;99.90;;;;;;4927669;28;20307;-62
2022/04/04 00:45:21;;;;;;;12.05;8.13;;;-1.60;99.90;;;;;;4926471;28;20295;-62
2022/04/04 00:47:49;;;;;;;13.40;8.57;;;-1.70;99.90;;;;;;4928365;28;20308;-61
2022/04/04 00:50:16;;;;;;;16.23;8.57;;;-1.70;99.90;;;;;;4928545;28;20145;-62
2022/04/04 00:52:42;;;;;;;15.35;8.90;;;-1.70;99.90;;;;;;4927856;28;20844;-61
2022/04/04 00:55:10;;;;;;;16.65;9.70;;;-1.70;99.90;;;;;;4929529;28;20053;-61
2022/04/04 00:57:38;;;;;;;15.20;9.52;;;-1.70;99.90;;;;;;4926969;28;20042;-62
2022/04/04 01:00:07;;;;;;;13.73;9.55;;;-1.80;99.90;;;;;;4931686;28;20042;-61
2022/04/04 01:02:34;;;;;;;15.98;9.77;;;-1.80;99.90;;;;;;4926479;28;20046;-61
2022/04/04 01:05:01;;;;;;;16.67;10.02;;;-1.80;99.90;;;;;;4928956;28;20042;-62
2022/04/04 01:07:29;;;;;;;17.30;10.07;;;-1.90;99.90;;;;;;4930198;28;20568;-61
2022/04/04 01:09:56;;;;;;;18.10;9.85;;;-1.90;99.90;;;;;;4924779;28;20057;-61
2022/04/04 01:12:23;;;;;;;14.27;10.18;;;-1.90;99.90;;;;;;4929428;28;20141;-61
2022/04/04 01:14:50;;;;;;;13.27;9.98;;;-1.90;99.90;;;;;;4925400;28;20053;-61
2022/04/04 01:17:19;;;;;;;16.13;9.60;;;-1.90;99.90;;;;;;4926712;28;20042;-60
2022/04/04 01:19:46;;;;;;;16.38;10.13;;;-1.90;99.90;;;;;;4928598;28;20081;-59
2022/04/04 01:22:14;;;;;;;13.30;9.38;;;-2.00;99.90;;;;;;4928904;28;20039;-60
2022/04/04 01:24:42;;;;;;;12.88;10.05;;;-2.00;99.90;;;;;;4930243;28;20194;-60
2022/04/04 01:27:14;;;;;;;15.38;9.82;;;-2.10;99.90;;;;;;4927429;28;20072;-60
2022/04/04 01:29:42;;;;;;;17.10;11.35;;;-2.10;99.90;;;;;;4930081;28;20054;-60
2022/04/04 01:32:10;;;;;;;14.65;9.13;;;-2.10;99.90;;;;;;4931213;28;20125;-60
2022/04/04 01:34:37;;;;;;;13.88;9.32;;;-2.10;99.90;;;;;;4928599;28;20053;-60
2022/04/04 01:37:04;;;;;;;15.65;9.95;;;-2.20;99.90;;;;;;4931086;28;20747;-60
2022/04/04 01:39:31;;;;;;;17.55;10.43;;;-2.10;99.90;;;;;;4926454;28;20049;-60
2022/04/04 01:41:58;;;;;;;14.63;9.40;;;-2.10;99.90;;;;;;4928253;28;20057;-60
2022/04/04 01:44:25;;;;;;;15.82;9.57;;;-2.20;99.90;;;;;;4926551;28;20876;-60
2022/04/04 01:46:53;;;;;;;18.30;10.57;;;-2.20;99.90;;;;;;4908862;28;20452;-60
2022/04/04 01:49:20;;;;;;;13.35;9.48;;;-2.20;99.90;;;;;;4924628;28;20074;-60
2022/04/04 01:51:47;;;;;;;22.55;11.73;;;-2.20;99.90;;;;;;4931801;28;20038;-60
2022/04/04 01:54:14;;;;;;;16.58;10.57;;;-2.20;99.90;;;;;;4928162;28;20046;-59
2022/04/04 01:56:41;;;;;;;15.45;10.52;;;-2.20;99.90;;;;;;4927618;28;20196;-61
2022/04/04 01:59:08;;;;;;;16.35;10.77;;;-2.20;99.90;;;;;;4929974;28;20536;-60
2022/04/04 02:01:36;;;;;;;14.15;10.00;;;-2.30;99.90;;;;;;4909288;28;20187;-61
2022/04/04 02:04:03;;;;;;;17.85;8.98;;;-2.30;99.90;;;;;;4929630;28;20038;-62
2022/04/04 02:06:30;;;;;;;17.55;10.95;;;-2.30;99.90;;;;;;4930022;28;20570;-61
2022/04/04 02:08:57;;;;;;;16.77;11.10;;;-2.30;99.90;;;;;;4925387;28;20042;-61
2022/04/04 02:11:24;;;;;;;17.20;11.30;;;-2.40;99.90;;;;;;4927565;28;20039;-60
2022/04/04 02:13:51;;;;;;;23.58;11.07;;;-2.40;99.90;;;;;;4927592;28;20051;-60
2022/04/04 02:16:18;;;;;;;20.10;10.20;;;-2.40;99.90;;;;;;4930316;28;20935;-61
2022/04/04 02:18:46;;;;;;;18.10;10.68;;;-2.50;99.90;;;;;;4928622;28;20406;-61
2022/04/04 02:21:14;;;;;;;18.98;11.48;;;-2.50;99.90;;;;;;4929152;28;20192;-61
2022/04/04 02:23:41;;;;;;;21.50;11.85;;;-2.50;99.90;;;;;;4927228;28;20342;-61
2022/04/04 02:26:08;;;;;;;16.75;11.30;;;-2.60;99.90;;;;;;4928506;28;20042;-61
2022/04/04 02:28:35;;;;;;;19.98;11.10;;;-2.60;99.90;;;;;;4930116;28;20042;-61
2022/04/04 02:31:03;;;;;;;22.20;13.30;;;-2.60;99.90;;;;;;4929588;28;20900;-61
2022/04/04 02:33:30;;;;;;;25.30;13.05;;;-2.60;99.90;;;;;;4928386;28;20042;-61
2022/04/04 02:35:57;;;;;;;23.13;12.55;;;-2.70;99.90;;;;;;4928666;28;20145;-61
2022/04/04 02:38:26;;;;;;;19.90;12.65;;;-2.60;99.90;;;;;;4926551;28;20092;-60
2022/04/04 02:40:55;;;;;;;18.75;12.65;;;-2.60;99.90;;;;;;4925757;28;20548;-61
2022/04/04 02:43:22;;;;;;;20.00;11.27;;;-2.60;99.90;;;;;;4928455;28;20149;-61
2022/04/04 02:45:50;;;;;;;20.13;13.40;;;-2.60;99.90;;;;;;4926277;28;20112;-61
2022/04/04 02:48:18;;;;;;;23.85;12.90;;;-2.60;99.90;;;;;;4923902;28;20125;-61
2022/04/04 02:50:46;;;;;;;18.75;12.05;;;-2.60;99.90;;;;;;4927366;28;20283;-61
2022/04/04 02:53:14;;;;;;;21.50;11.90;;;-2.60;99.90;;;;;;4926986;28;20049;-61
2022/04/04 02:58:28;;;;;;;21.13;10.60;;;-2.50;99.90;;;;;;4925378;28;20297;-61
2022/04/04 03:00:55;;;;;;;16.60;10.48;;;-2.50;99.90;;;;;;4935590;28;20212;-61
2022/04/04 03:03:23;;;;;;;18.02;11.68;;;-2.40;99.90;;;;;;4926391;28;20409;-61
2022/04/04 03:05:50;;;;;;;19.55;11.65;;;-2.40;99.90;;;;;;4929522;28;20102;-61
2022/04/04 03:08:17;;;;;;;22.25;12.88;;;-2.40;99.90;;;;;;4928970;28;20050;-61
2022/04/04 03:10:45;;;;;;;20.13;12.85;;;-2.40;99.90;;;;;;4926258;28;20731;-62
2022/04/04 03:13:12;;;;;;;19.60;12.18;;;-2.30;99.90;;;;;;4927822;28;20057;-61
2022/04/04 03:15:39;;;;;;;22.95;12.38;;;-2.30;99.90;;;;;;4926746;28;20046;-61
2022/04/04 03:18:07;;;;;;;19.73;12.85;;;-2.20;99.90;;;;;;4926582;28;20600;-61
2022/04/04 03:20:35;;;;;;;19.33;11.90;;;-2.20;99.90;;;;;;4928054;28;20106;-61
2022/04/04 03:23:02;;;;;;;20.67;11.63;;;-2.20;99.90;;;;;;4927007;28;20254;-62
2022/04/04 03:25:30;;;;;;;21.88;11.65;;;-2.20;99.90;;;;;;4927842;28;20582;-61
2022/04/04 03:27:57;;;;;;;20.10;12.32;;;-2.10;99.90;;;;;;4928927;28;20381;-61
2022/04/04 03:30:27;;;;;;;21.20;12.50;;;-2.10;99.90;;;;;;4932053;28;20548;-61
2022/04/04 03:32:57;;;;;;;18.20;12.15;;;-2.10;99.90;;;;;;4933518;28;20815;-62
2022/04/04 03:35:28;;;;;;;18.95;11.90;;;-2.00;99.90;;;;;;4935223;28;20807;-61
2022/04/04 03:37:58;;;;;;;18.83;12.18;;;-2.00;99.90;;;;;;4934753;28;20172;-62
2022/04/04 03:40:26;;;;;;;20.02;12.45;;;-2.00;99.90;;;;;;4928383;28;20513;-61
2022/04/04 03:42:55;;;;;;;23.65;13.75;;;-2.00;99.90;;;;;;4929947;28;20147;-60
2022/04/04 03:45:24;;;;;;;16.77;11.40;;;-1.90;99.90;;;;;;4927668;28;20066;-61
2022/04/04 03:47:52;;;;;;;19.63;11.85;;;-1.90;99.90;;;;;;4928310;28;20056;-62
2022/04/04 03:50:20;;;;;;;21.40;11.77;;;-1.90;99.90;;;;;;4912311;28;20407;-61
2022/04/04 03:52:51;;;;;;;18.52;12.75;;;-1.90;99.90;;;;;;4931284;28;20054;-61
2022/04/04 03:55:24;;;;;;;33.40;15.95;;;-1.80;99.90;;;;;;4935172;28;20183;-62
2022/04/04 03:57:52;;;;;;;21.98;13.93;;;-1.80;99.90;;;;;;4929466;28;20045;-61
2022/04/04 04:00:22;;;;;;;22.42;15.05;;;-1.80;99.90;;;;;;4931904;28;20371;-61
2022/04/04 04:02:50;;;;;;;16.58;11.30;;;-1.80;99.90;;;;;;4927716;28;20112;-61
2022/04/04 04:05:17;;;;;;;18.52;12.68;;;-1.80;99.90;;;;;;4932960;28;20046;-61
2022/04/04 04:07:44;;;;;;;17.55;12.73;;;-1.80;99.90;;;;;;4909535;28;20603;-61
2022/04/04 04:10:12;;;;;;;18.08;13.32;;;-1.80;99.90;;;;;;4930010;28;20110;-61
2022/04/04 04:12:41;;;;;;;21.08;13.40;;;-1.80;99.90;;;;;;4928894;28;20362;-61
2022/04/04 04:15:17;;;;;;;18.85;12.27;;;-1.70;99.90;;;;;;4933297;28;20652;-61
2022/04/04 04:17:45;;;;;;;21.73;12.45;;;-1.70;99.90;;;;;;4930265;28;20724;-62
2022/04/04 04:20:22;;;;;;;20.27;13.82;;;-1.70;99.90;;;;;;4926678;28;20441;-62
2022/04/04 04:23:02;;;;;;;22.20;14.35;;;-1.70;99.90;;;;;;4931064;28;20921;-61
2022/04/04 04:25:31;;;;;;;21.48;13.95;;;-1.60;99.90;;;;;;4925674;28;20579;-62
2022/04/04 04:28:01;;;;;;;17.20;11.63;;;-1.60;99.90;;;;;;4925926;28;20117;-61
2022/04/04 04:30:31;;;;;;;22.77;12.75;;;-1.60;99.90;;;;;;4926204;28;20264;-61
2022/04/04 04:32:59;;;;;;;20.80;13.70;;;-1.60;99.90;;;;;;4911159;28;20212;-60
2022/04/04 04:35:26;;;;;;;18.65;12.20;;;-1.60;99.90;;;;;;4929201;28;20046;-61
2022/04/04 04:37:54;;;;;;;19.63;13.40;;;-1.60;99.90;;;;;;4927488;28;20042;-62
2022/04/04 04:40:21;;;;;;;17.42;12.00;;;-1.60;99.90;;;;;;4930450;28;20042;-62
2022/04/04 04:42:50;;;;;;;21.45;13.77;;;-1.60;99.90;;;;;;4911071;28;20464;-61
2022/04/04 04:45:17;;;;;;;18.58;13.40;;;-1.60;99.90;;;;;;4927219;28;20224;-61
2022/04/04 04:47:44;;;;;;;18.20;12.13;;;-1.50;99.90;;;;;;4907430;28;20034;-61
2022/04/04 04:50:16;;;;;;;21.88;13.20;;;-1.50;99.90;;;;;;4909274;28;20969;-61
2022/04/04 04:52:45;;;;;;;19.00;13.30;;;-1.50;99.90;;;;;;4932176;28;20049;-61
2022/04/04 04:55:13;;;;;;;19.92;12.75;;;-1.50;99.90;;;;;;4932133;28;20061;-61
2022/04/04 04:57:41;;;;;;;24.05;14.05;;;-1.50;99.90;;;;;;4929644;28;20557;-61
2022/04/04 05:00:11;;;;;;;20.48;13.27;;;-1.50;99.90;;;;;;4929953;28;20200;-61
2022/04/04 05:02:38;;;;;;;26.85;16.55;;;-1.50;99.90;;;;;;4934039;28;20167;-61
2022/04/04 05:05:05;;;;;;;21.50;13.85;;;-1.50;99.90;;;;;;4929724;28;21002;-61
2022/04/04 05:07:33;;;;;;;20.73;13.57;;;-1.50;99.90;;;;;;4927461;28;20831;-61
2022/04/04 05:10:01;;;;;;;20.27;15.15;;;-1.50;99.90;;;;;;4927673;28;20351;-62
2022/04/04 05:12:28;;;;;;;22.77;13.07;;;-1.50;99.90;;;;;;4927766;28;20117;-61
2022/04/04 05:14:55;;;;;;;21.75;14.32;;;-1.50;99.90;;;;;;4928438;28;20258;-61
2022/04/04 05:17:22;;;;;;;23.92;14.35;;;-1.50;99.90;;;;;;4926692;28;20046;-60
2022/04/04 05:19:49;;;;;;;25.02;14.55;;;-1.40;99.90;;;;;;4931192;28;20041;-60
2022/04/04 05:22:16;;;;;;;22.50;14.40;;;-1.40;99.90;;;;;;4929071;28;20043;-61
2022/04/04 05:24:43;;;;;;;21.38;14.95;;;-1.40;99.90;;;;;;4929770;28;20425;-61
2022/04/04 05:27:10;;;;;;;22.98;14.07;;;-1.40;99.90;;;;;;4930894;28;20894;-58
2022/04/04 05:29:37;;;;;;;24.75;14.32;;;-1.40;99.90;;;;;;4926580;28;20936;-57
2022/04/04 05:32:04;;;;;;;21.80;13.68;;;-1.40;99.90;;;;;;4928111;28;20868;-57
2022/04/04 05:34:31;;;;;;;21.90;14.40;;;-1.40;99.90;;;;;;4930664;28;20738;-58
2022/04/04 05:36:59;;;;;;;21.67;14.68;;;-1.40;99.90;;;;;;4928190;28;20129;-58
2022/04/04 05:39:26;;;;;;;22.95;15.35;;;-1.30;99.90;;;;;;4927315;28;20314;-58
2022/04/04 05:41:53;;;;;;;19.75;14.55;;;-1.30;99.90;;;;;;4925097;28;20110;-58
2022/04/04 05:44:20;;;;;;;22.00;15.45;;;-1.30;99.90;;;;;;4929571;28;20616;-58
2022/04/04 05:46:47;;;;;;;25.70;16.65;;;-1.30;99.90;;;;;;4930025;28;20046;-58
2022/04/04 05:49:15;;;;;;;19.42;13.95;;;-1.30;99.90;;;;;;4928115;28;20768;-58
2022/04/04 05:51:43;;;;;;;23.45;15.93;;;-1.30;99.90;;;;;;4929975;28;20219;-57
2022/04/04 05:54:27;;;;;;;21.38;13.20;;;-1.30;99.90;;;;;;4929977;28;20111;-57
2022/04/04 05:56:54;;;;;;;24.75;15.85;;;-1.20;99.90;;;;;;4933258;28;20266;-56
2022/04/04 05:59:26;;;;;;;24.95;14.65;;;-1.20;99.90;;;;;;4923860;28;20564;-56
2022/04/04 06:01:53;;;;;;;23.63;14.65;;;-1.20;99.90;;;;;;4943744;28;20195;-57
2022/04/04 06:04:20;;;;;;;22.20;15.50;;;-1.10;99.90;;;;;;4945651;28;20301;-56
2022/04/04 06:06:47;;;;;;;24.73;16.00;;;-1.10;99.90;;;;;;4945461;28;20705;-57
2022/04/04 06:09:14;;;;;;;24.33;16.20;;;-1.10;99.90;;;;;;4943897;28;20052;-56
2022/04/04 06:11:41;;;;;;;25.38;15.48;;;-1.10;99.90;;;;;;4944229;28;20046;-56
2022/04/04 06:14:08;;;;;;;28.90;17.40;;;-1.10;99.90;;;;;;4948908;28;20313;-56
2022/04/04 06:16:35;;;;;;;28.65;17.40;;;-1.10;99.90;;;;;;4927364;28;20057;-57
2022/04/04 06:19:03;;;;;;;26.10;15.93;;;-1.00;99.90;;;;;;4930108;28;20046;-54
2022/04/04 06:21:30;;;;;;;25.15;16.83;;;-1.00;99.90;;;;;;4932180;28;20039;-56
2022/04/04 06:23:57;;;;;;;26.40;16.23;;;-1.00;99.90;;;;;;4929598;28;20594;-53
2022/04/04 06:26:24;;;;;;;28.65;17.17;;;-1.00;99.90;;;;;;4930226;28;20797;-55
2022/04/04 06:28:52;;;;;;;25.05;16.77;;;-1.00;99.90;;;;;;4932780;28;20100;-56
2022/04/04 06:31:19;;;;;;;34.38;20.90;;;-0.90;99.90;;;;;;4931068;28;20125;-53
2022/04/04 06:33:47;;;;;;;23.55;15.77;;;-0.90;99.90;;;;;;4928972;28;20564;-54
2022/04/04 06:36:14;;;;;;;23.30;15.15;;;-0.80;99.90;;;;;;4932943;28;20046;-57
2022/04/04 06:38:41;;;;;;;23.00;14.68;;;-0.70;99.90;;;;;;4928744;28;20049;-55
2022/04/04 06:41:08;;;;;;;23.52;15.13;;;-0.60;99.90;;;;;;4928714;28;20042;-55
2022/04/04 06:43:35;;;;;;;21.23;15.48;;;-0.50;99.90;;;;;;4926897;28;20413;-56
2022/04/04 06:46:02;;;;;;;28.77;17.95;;;-0.50;99.90;;;;;;4930255;28;20286;-63
2022/04/04 06:48:30;;;;;;;23.42;16.67;;;-0.40;99.90;;;;;;4932820;28;20058;-59
2022/04/04 06:50:59;;;;;;;23.95;15.00;;;-0.30;99.90;;;;;;4931314;28;20720;-57
2022/04/04 06:53:26;;;;;;;24.35;15.35;;;-0.20;99.90;;;;;;4932193;28;21104;-54
2022/04/04 06:55:54;;;;;;;25.48;16.10;;;-0.10;99.90;;;;;;4927467;28;20046;-58
2022/04/04 06:58:21;;;;;;;27.42;18.08;;;0.00;99.90;;;;;;4926200;28;20359;-55
2022/04/04 07:00:48;;;;;;;24.10;16.92;;;0.00;99.90;;;;;;4933465;28;20144;-58
2022/04/04 07:03:15;;;;;;;25.08;15.45;;;0.10;99.90;;;;;;4934626;28;20043;-58
2022/04/04 07:05:43;;;;;;;25.13;16.40;;;0.20;99.90;;;;;;4935177;28;20113;-62
2022/04/04 07:08:10;;;;;;;28.08;15.07;;;0.40;99.90;;;;;;4934158;28;20216;-62
2022/04/04 07:10:38;;;;;;;28.48;17.08;;;0.60;99.90;;;;;;4933042;28;20134;-58
2022/04/04 07:13:05;;;;;;;29.25;16.52;;;0.70;99.90;;;;;;4930084;28;20112;-56
2022/04/04 07:15:33;;;;;;;25.23;16.05;;;0.80;99.90;;;;;;4936784;28;20197;-57
2022/04/04 07:18:00;;;;;;;21.67;16.02;;;0.90;99.90;;;;;;4913678;28;20035;-57
2022/04/04 07:20:27;;;;;;;28.70;17.50;;;1.10;99.90;;;;;;4914497;28;20043;-58
2022/04/04 07:22:55;;;;;;;27.15;17.20;;;1.20;99.90;;;;;;4919466;28;20367;-56
2022/04/04 07:25:22;;;;;;;22.48;15.45;;;1.40;99.90;;;;;;4916459;28;20825;-54
2022/04/04 07:27:49;;;;;;;22.98;16.98;;;1.50;99.90;;;;;;4917225;28;20043;-58
2022/04/04 07:30:18;;;;;;;31.33;17.70;;;1.70;99.90;;;;;;4914502;28;20046;-54
2022/04/04 07:32:47;;;;;;;27.15;15.50;;;1.90;99.90;;;;;;4913319;28;20079;-56
2022/04/04 07:35:15;;;;;;;26.67;16.95;;;2.00;99.90;;;;;;4913909;28;20571;-55
2022/04/04 07:37:44;;;;;;;26.70;16.00;;;2.20;99.90;;;;;;4932154;28;20604;-55
2022/04/04 07:40:14;;;;;;;26.38;15.82;;;2.70;99.90;;;;;;4932244;28;20068;-54
2022/04/04 07:42:43;;;;;;;24.95;17.45;;;3.20;99.90;;;;;;4936728;28;20042;-57
2022/04/04 07:45:13;;;;;;;25.67;16.40;;;3.80;99.90;;;;;;4937811;28;20124;-57
2022/04/04 07:47:41;;;;;;;23.55;16.02;;;4.20;99.90;;;;;;4935884;28;20049;-55
2022/04/04 07:50:11;;;;;;;26.02;17.05;;;4.60;99.90;;;;;;4931335;28;20050;-58
2022/04/04 07:52:38;;;;;;;29.20;14.90;;;5.10;99.90;;;;;;4932549;28;20050;-58
2022/04/04 07:55:06;;;;;;;20.40;14.18;;;5.50;99.90;;;;;;4931583;28;20072;-59
2022/04/04 07:57:34;;;;;;;22.48;14.13;;;5.70;99.90;;;;;;4913930;28;20606;-58
2022/04/04 08:00:01;;;;;;;21.45;14.50;;;5.70;99.90;;;;;;4933755;28;20081;-58
2022/04/04 08:02:33;;;;;;;25.67;15.40;;;5.80;99.90;;;;;;4935581;28;20602;-54
2022/04/04 08:05:00;;;;;;;25.88;15.52;;;6.00;99.90;;;;;;4949821;28;20049;-55
2022/04/04 08:07:28;;;;;;;22.48;14.52;;;6.10;99.10;;;;;;4954671;28;20042;-54
2022/04/04 08:09:55;;;;;;;19.08;13.18;;;6.20;97.50;;;;;;4955444;28;20559;-54
2022/04/04 08:12:29;;;;;;;21.17;12.63;;;6.10;96.40;;;;;;4950118;28;20046;-62
2022/04/04 08:14:57;;;;;;;21.65;13.60;;;6.10;96.50;;;;;;4949926;28;20504;-54
2022/04/04 08:17:24;;;;;;;20.48;13.57;;;6.20;95.40;;;;;;4924137;28;20208;-54
2022/04/04 08:19:51;;;;;;;18.63;13.70;;;6.30;96.70;;;;;;4917881;28;20049;-57
2022/04/04 08:22:20;;;;;;;27.55;13.70;;;6.60;95.90;;;;;;4914884;28;20177;-56
2022/04/04 08:24:48;;;;;;;24.33;13.52;;;6.80;95.40;;;;;;4928132;28;20128;-56
2022/04/04 08:27:15;;;;;;;17.65;12.63;;;7.00;92.90;;;;;;4915582;28;20214;-55
2022/04/04 08:29:42;;;;;;;27.20;15.25;;;6.90;93.50;;;;;;4913089;28;20042;-55
2022/04/04 08:32:10;;;;;;;20.50;12.63;;;6.90;92.40;;;;;;4937152;28;20046;-59
2022/04/04 08:34:37;;;;;;;17.13;11.50;;;7.00;92.20;;;;;;4947937;28;20045;-59
2022/04/04 08:37:04;;;;;;;18.52;14.25;;;7.00;91.20;;;;;;4947416;28;20604;-58
2022/04/04 08:39:32;;;;;;;18.92;13.68;;;6.90;93.10;;;;;;4946864;28;20037;-58
2022/04/04 08:41:59;;;;;;;18.63;13.80;;;6.90;91.80;;;;;;4949343;28;20383;-59
2022/04/04 08:44:27;;;;;;;20.85;13.07;;;6.80;91.50;;;;;;4948873;28;20038;-56
2022/04/04 08:46:54;;;;;;;21.48;14.68;;;6.80;92.50;;;;;;4928448;28;20046;-60
2022/04/04 08:49:21;;;;;;;19.15;14.73;;;6.80;92.60;;;;;;4931099;28;20626;-58
2022/04/04 08:51:49;;;;;;;22.80;14.75;;;6.70;92.30;;;;;;4927398;28;20053;-57
2022/04/04 08:54:16;;;;;;;18.33;13.55;;;6.60;93.90;;;;;;4929536;28;20200;-60
2022/04/04 08:56:43;;;;;;;23.08;14.35;;;6.60;94.00;;;;;;4928921;28;20551;-60
2022/04/04 08:59:11;;;;;;;19.52;13.98;;;6.50;94.50;;;;;;4929135;28;20070;-60
2022/04/04 09:01:38;;;;;;;21.00;13.88;;;6.50;94.40;;;;;;4911956;28;20048;-59
2022/04/04 09:04:05;;;;;;;20.90;13.63;;;6.70;95.40;;;;;;4929079;28;20836;-60
2022/04/04 09:06:50;;;;;;;20.98;14.00;;;6.70;92.50;;;;;;4930301;28;20179;-59
2022/04/04 09:09:39;;;;;;;18.98;13.95;;;6.60;93.20;;;;;;4929053;28;20038;-55
2022/04/04 09:12:10;;;;;;;21.58;13.73;;;6.40;94.00;;;;;;4929685;28;20153;-56
2022/04/04 09:14:58;;;;;;;20.98;13.60;;;6.40;93.40;;;;;;4926948;28;20081;-56
2022/04/04 09:17:32;;;;;;;20.65;14.48;;;6.40;93.90;;;;;;4925000;28;20084;-54
2022/04/04 09:20:07;;;;;;;21.50;15.20;;;6.50;92.90;;;;;;4930463;28;20054;-54
2022/04/04 09:22:34;;;;;;;17.50;13.85;;;6.50;92.20;;;;;;4933208;28;20061;-57
2022/04/04 09:25:05;;;;;;;20.60;14.15;;;6.30;92.70;;;;;;4932716;28;20574;-54
2022/04/04 09:27:34;;;;;;;18.58;13.38;;;6.20;92.60;;;;;;4929890;28;20362;-54
2022/04/04 09:30:07;;;;;;;20.33;14.30;;;5.90;93.00;;;;;;4932693;28;20151;-56
2022/04/04 09:32:36;;;;;;;33.78;21.13;;;5.80;92.70;;;;;;4925885;28;20073;-57
2022/04/04 09:35:13;;;;;;;43.72;27.85;;;5.60;95.20;;;;;;4925846;28;20054;-56
2022/04/04 09:37:48;;;;;;;22.63;14.80;;;5.80;97.20;;;;;;4910072;28;20553;-58
2022/04/04 09:40:25;;;;;;;23.00;15.10;;;6.10;94.60;;;;;;4935889;28;20068;-54
2022/04/04 09:42:51;;;;;;;25.75;17.58;;;6.40;96.40;;;;;;4926609;28;20316;-55
2022/04/04 09:45:28;;;;;;;;;;;6.80;95.40;;;;;;4928277;28;20111;-55
2022/04/04 09:48:01;;;;;;;18.67;13.73;;;7.00;93.80;;;;;;4929682;28;20044;-55
2022/04/04 09:50:39;;;;;;;23.08;14.80;;;7.30;94.10;;;;;;4926933;28;20045;-55
2022/04/04 09:53:19;;;;;;;23.35;15.63;;;7.40;93.70;;;;;;4923837;28;20051;-55
2022/04/04 09:55:55;;;;;;;22.20;16.65;;;7.40;93.60;;;;;;4927439;28;20053;-58
2022/04/04 09:58:24;;;;;;;26.73;16.45;;;7.30;93.00;;;;;;4924392;28;20219;-58
2022/04/04 10:00:54;;;;;;;22.40;16.08;;;7.00;94.00;;;;;;4942515;28;20590;-57
2022/04/04 10:03:22;;;;;;;21.23;15.82;;;6.80;93.00;;;;;;4950957;28;20057;-57
2022/04/04 10:05:55;;;;;;;21.70;16.63;;;6.70;93.80;;;;;;4948312;28;20138;-58
2022/04/04 10:08:26;;;;;;;27.85;15.98;;;6.50;94.70;;;;;;4949612;28;20045;-59
2022/04/04 10:10:57;;;;;;;24.35;15.88;;;6.40;95.50;;;;;;4948112;28;20144;-58
2022/04/04 10:13:25;;;;;;;21.08;15.52;;;6.40;96.90;;;;;;4948840;28;20052;-58
2022/04/04 10:15:53;;;;;;;21.67;15.15;;;6.50;96.30;;;;;;4934175;28;20042;-59
2022/04/04 10:18:21;;;;;;;27.83;17.08;;;6.70;95.60;;;;;;4929481;28;20958;-59
2022/04/04 10:20:56;;;;;;;20.92;14.68;;;6.90;97.30;;;;;;4932410;28;20085;-58
2022/04/04 10:23:26;;;;;;;22.15;15.98;;;7.10;96.60;;;;;;4926523;28;20053;-58
2022/04/04 10:25:55;;;;;;;21.75;16.73;;;7.40;96.80;;;;;;4929971;28;20057;-58
2022/04/04 10:28:27;;;;;;;28.42;17.42;;;7.70;96.60;;;;;;4926920;28;20548;-57
2022/04/04 10:30:59;;;;;;;21.25;16.02;;;7.70;93.10;;;;;;4929032;28;20053;-56
2022/04/04 10:33:32;;;;;;;24.50;16.70;;;7.50;92.90;;;;;;4928439;28;20140;-57
2022/04/04 10:36:10;;;;;;;22.90;16.42;;;7.50;91.90;;;;;;4926474;28;20606;-55
2022/04/04 10:38:55;;;;;;;21.30;15.52;;;7.50;95.10;;;;;;4946297;28;20048;-56
2022/04/04 10:41:27;;;;;;;22.08;15.07;;;7.70;94.70;;;;;;4909681;28;20050;-56
2022/04/04 10:43:55;;;;;;;28.27;13.95;;;7.70;90.90;;;;;;4925320;28;20548;-56
2022/04/04 10:46:24;;;;;;;19.55;15.10;;;7.50;91.40;;;;;;4958517;28;20379;-56
2022/04/04 10:48:59;;;;;;;22.17;16.08;;;7.20;91.50;;;;;;4942346;28;20056;-56
2022/04/04 10:51:28;;;;;;;20.92;14.75;;;7.00;92.80;;;;;;4944739;28;20034;-56
2022/04/04 10:54:01;;;;;;;17.65;13.52;;;6.90;93.20;;;;;;4944360;28;20195;-56
2022/04/04 10:56:38;;;;;;;18.00;13.90;;;6.80;91.00;;;;;;4946564;28;20038;-57
2022/04/04 10:59:23;;;;;;;19.00;14.50;;;6.80;93.10;;;;;;4934130;28;20038;-59
2022/04/04 11:01:53;;;;;;;18.42;13.60;;;6.70;91.50;;;;;;4931583;28;20038;-58
2022/04/04 11:04:37;;;;;;;18.88;14.00;;;6.60;91.70;;;;;;4932637;28;20038;-59
2022/04/04 11:10:06;;;;;;;18.83;13.57;;;6.70;92.80;;;;;;4932601;28;20050;-59
2022/04/04 11:12:55;;;;;;;17.30;12.68;;;6.70;91.50;;;;;;4926548;28;20270;-58
2022/04/04 11:15:55;;;;;;;19.48;14.10;;;6.60;91.30;;;;;;4931128;28;20078;-59
2022/04/04 11:18:32;;;;;;;19.10;14.13;;;6.50;90.50;;;;;;4931185;28;20052;-58
2022/04/04 11:20:59;;;;;;;18.60;13.18;;;6.50;92.30;;;;;;4931756;28;20351;-59
2022/04/04 11:23:30;;;;;;;19.15;14.52;;;6.50;92.00;;;;;;4916036;28;20044;-59
2022/04/04 11:25:58;;;;;;;25.50;15.32;;;6.50;91.80;;;;;;4935798;28;20298;-58
2022/04/04 11:28:31;;;;;;;23.10;14.82;;;6.60;91.50;;;;;;4926995;28;20031;-59
2022/04/04 11:31:07;;;;;;;18.33;14.00;;;6.70;92.60;;;;;;4932407;28;20106;-59
2022/04/04 11:33:54;;;;;;;20.23;14.48;;;6.50;91.30;;;;;;4932393;28;20057;-58
2022/04/04 11:36:27;;;;;;;20.77;15.02;;;6.40;93.90;;;;;;4931280;28;20411;-59
2022/04/04 11:38:59;;;;;;;19.90;13.43;;;6.40;93.10;;;;;;4930816;28;20046;-60
2022/04/04 11:41:26;;;;;;;19.42;14.82;;;6.50;92.80;;;;;;4930949;28;20038;-60
2022/04/04 11:43:53;;;;;;;19.92;14.00;;;6.70;91.70;;;;;;4931206;28;20049;-60
2022/04/04 11:46:22;;;;;;;18.63;13.27;;;6.80;93.10;;;;;;4931825;28;20611;-58
2022/04/04 11:48:54;;;;;;;17.83;14.30;;;7.00;92.10;;;;;;4934789;28;20046;-61
2022/04/04 11:51:36;;;;;;;20.23;14.68;;;7.20;91.10;;;;;;4928504;28;20459;-59
2022/04/04 11:54:07;;;;;;;21.42;13.20;;;7.20;90.00;;;;;;4934328;28;20848;-59
2022/04/04 11:56:34;;;;;;;15.32;11.98;;;7.20;90.40;;;;;;4932884;28;20897;-58
2022/04/04 11:59:04;;;;;;;17.13;13.05;;;7.20;91.90;;;;;;4929956;28;20255;-58
2022/04/04 12:01:35;;;;;;;15.85;11.80;;;7.40;91.90;;;;;;4932509;28;20042;-57
2022/04/04 12:04:05;;;;;;;18.55;12.38;;;7.50;89.50;;;;;;4932351;28;20828;-59
2022/04/04 12:06:34;;;;;;;24.27;14.52;;;7.40;90.20;;;;;;4929095;28;20038;-59
2022/04/04 12:09:07;;;;;;;17.38;13.40;;;7.30;90.30;;;;;;4934549;28;20120;-62
2022/04/04 12:11:35;;;;;;;20.85;13.55;;;7.20;88.50;;;;;;4932563;28;20220;-62
2022/04/04 12:14:02;;;;;;;16.38;12.48;;;7.10;90.30;;;;;;4940977;28;20057;-62
2022/04/04 12:16:30;;;;;;;16.63;13.38;;;7.00;88.50;;;;;;4928607;28;20145;-62
2022/04/04 12:18:59;;;;;;;18.05;13.55;;;6.90;89.90;;;;;;4934767;28;20893;-62
2022/04/04 12:21:28;;;;;;;19.27;13.90;;;7.00;90.70;;;;;;4949067;28;20222;-63
2022/04/04 12:26:44;;;;;;;17.45;12.45;;;7.20;90.00;;;;;;4949420;28;20356;-62
2022/04/04 12:29:13;;;;;;;18.30;13.48;;;7.40;91.30;;;;;;4948546;28;20042;-64
2022/04/04 12:31:55;;;;;;;19.30;13.43;;;7.40;89.70;;;;;;4951229;28;20045;-59
2022/04/04 12:34:23;;;;;;;17.77;13.68;;;7.50;90.60;;;;;;4950945;28;20119;-59
2022/04/04 12:36:58;;;;;;;18.40;13.15;;;7.60;90.20;;;;;;4936638;28;20039;-61
2022/04/04 12:39:25;;;;;;;20.40;12.90;;;7.60;88.80;;;;;;4929838;28;20046;-61
2022/04/04 12:41:54;;;;;;;19.00;13.20;;;7.60;89.80;;;;;;4913413;28;20599;-61
2022/04/04 12:44:24;;;;;;;19.67;14.40;;;7.60;89.40;;;;;;4932026;28;20042;-61
2022/04/04 12:47:08;;;;;;;17.45;13.38;;;7.60;90.10;;;;;;4930612;28;20086;-61
2022/04/04 12:49:35;;;;;;;18.15;13.00;;;7.60;87.20;;;;;;4930788;28;20859;-61
2022/04/04 12:52:22;;;;;;;17.48;13.32;;;7.50;90.20;;;;;;4929986;28;20046;-61